Time;durP1;ratioP1;P1;durP2;ratioP2;P2;SDS_P1;SDS_P2;PMS_P1;PMS_P2;Temp;Humidity;BMP_temperature;BMP_pressure;BME280_temperature;BME280_humidity;BME280_pressure;Samples;Min_cycle;Max_cycle;Signal;HPM_P1;HPM_P2
2021/12/17 00:02:34;;;;;;;13.57;4.80;;;;;;;2.34;100.00;102854.13;4998624;28;20589;-82
2021/12/17 00:04:59;;;;;;;14.00;5.07;;;;;;;2.36;100.00;102857.72;5021315;28;20041;-83
2021/12/17 00:07:27;;;;;;;20.07;6.07;;;;;;;2.41;100.00;102875.38;5036244;28;20034;-80
2021/12/17 00:10:00;;;;;;;8.27;4.50;;;;;;;2.42;100.00;102876.25;5007911;28;20061;-80
2021/12/17 00:12:28;;;;;;;14.40;4.90;;;;;;;2.42;100.00;102874.53;5002702;28;20494;-80
2021/12/17 00:14:57;;;;;;;14.03;4.33;;;;;;;2.35;100.00;102874.16;5030241;28;20292;-81
2021/12/17 00:17:28;;;;;;;13.27;5.80;;;;;;;2.33;100.00;102862.78;5030643;28;20033;-80
2021/12/17 00:20:41;;;;;;;8.90;4.30;;;;;;;2.32;100.00;102856.66;4993542;28;20057;-80
2021/12/17 01:45:15;;;;;;;14.00;4.80;;;;;;;2.41;100.00;102895.34;5026582;28;20041;-86
2021/12/17 01:47:41;;;;;;;10.60;4.63;;;;;;;2.45;100.00;102895.59;5007057;28;20037;-86
2021/12/17 01:56:04;;;;;;;18.70;6.07;;;;;;;2.56;100.00;102879.53;5030130;28;20088;-88
2021/12/17 02:01:14;;;;;;;18.67;6.67;;;;;;;2.69;100.00;102890.66;5017052;28;20453;-86
2021/12/17 02:03:41;;;;;;;14.77;6.20;;;;;;;2.85;100.00;102888.72;5010567;28;20037;-86
2021/12/17 02:06:08;;;;;;;20.50;6.97;;;;;;;2.87;100.00;102880.16;4998192;28;20053;-87
2021/12/17 02:08:35;;;;;;;16.27;6.07;;;;;;;2.96;100.00;102874.47;4996003;28;20045;-87
2021/12/17 02:30:35;;;;;;;15.63;6.47;;;;;;;3.19;100.00;102871.16;5025286;28;20041;-87
2021/12/17 02:33:02;;;;;;;16.10;6.53;;;;;;;3.18;100.00;102856.31;5009923;28;20494;-87
2021/12/17 02:35:33;;;;;;;21.47;6.47;;;;;;;3.28;100.00;102858.56;5023833;28;20037;-88
2021/12/17 02:38:01;;;;;;;13.90;5.97;;;;;;;3.31;100.00;102865.63;5005420;28;20041;-88
2021/12/17 02:45:48;;;;;;;17.20;5.37;;;;;;;3.25;100.00;102854.88;5026715;28;20045;-87
2021/12/17 02:48:20;;;;;;;16.70;6.27;;;;;;;3.33;100.00;102857.00;5026543;28;20103;-88
2021/12/17 02:50:48;;;;;;;21.47;7.83;;;;;;;3.36;100.00;102859.78;5013116;28;20522;-87
2021/12/17 02:53:16;;;;;;;16.30;6.10;;;;;;;3.42;100.00;102858.25;5034357;28;20068;-88
2021/12/17 02:55:48;;;;;;;13.57;5.67;;;;;;;3.37;100.00;102858.06;5027927;28;20057;-87
2021/12/17 02:58:15;;;;;;;15.00;5.37;;;;;;;3.39;100.00;102861.63;5002533;28;20072;-87
2021/12/17 03:00:43;;;;;;;15.77;5.90;;;;;;;3.38;100.00;102850.28;5016348;28;20522;-88
2021/12/17 03:03:11;;;;;;;13.93;6.03;;;;;;;3.45;100.00;102855.75;5004504;28;20073;-88
2021/12/17 03:05:40;;;;;;;15.80;6.17;;;;;;;3.48;100.00;102848.97;4997558;28;20041;-88
2021/12/17 03:08:12;;;;;;;19.67;5.90;;;;;;;3.48;100.00;102851.56;5012642;28;20092;-87
2021/12/17 03:10:39;;;;;;;16.90;7.00;;;;;;;3.49;100.00;102847.25;5040393;28;20413;-89
2021/12/17 03:13:06;;;;;;;13.80;6.37;;;;;;;3.49;100.00;102836.78;5016357;28;20119;-85
2021/12/17 03:23:49;;;;;;;16.00;5.83;;;;;;;3.55;100.00;102832.72;5009736;28;20556;-89
2021/12/17 03:26:27;;;;;;;14.20;6.00;;;;;;;3.63;100.00;102841.78;5004333;28;20464;-86
2021/12/17 03:28:57;;;;;;;13.90;5.67;;;;;;;3.59;100.00;102838.97;4993975;28;20596;-88
2021/12/17 03:31:25;;;;;;;14.00;5.83;;;;;;;3.50;100.00;102846.41;4994742;28;20041;-86
2021/12/17 03:33:55;;;;;;;17.77;6.17;;;;;;;3.61;100.00;102850.38;4994626;28;20111;-88
2021/12/17 03:36:22;;;;;;;20.13;6.03;;;;;;;3.67;100.00;102840.19;5012524;28;20033;-86
2021/12/17 03:38:50;;;;;;;25.23;6.57;;;;;;;3.65;100.00;102845.34;4995155;28;20037;-89
2021/12/17 03:41:28;;;;;;;15.77;5.97;;;;;;;3.66;100.00;102852.38;4999049;28;20140;-87
2021/12/17 03:43:55;;;;;;;15.50;5.80;;;;;;;3.74;100.00;102850.06;4989364;28;20583;-89
2021/12/17 03:46:22;;;;;;;19.73;6.20;;;;;;;3.65;100.00;102847.97;4998744;28;20046;-88
2021/12/17 03:48:49;;;;;;;19.77;6.90;;;;;;;3.78;100.00;102840.63;5015283;28;20045;-89
2021/12/17 03:51:18;;;;;;;16.40;6.00;;;;;;;3.67;100.00;102837.56;5022526;28;20044;-87
2021/12/17 03:53:56;;;;;;;20.23;7.23;;;;;;;3.68;100.00;102839.34;5008249;28;20116;-88
2021/12/17 03:56:24;;;;;;;13.30;5.70;;;;;;;3.75;100.00;102827.44;5014280;28;20041;-88
2021/12/17 03:58:53;;;;;;;13.33;5.83;;;;;;;3.81;100.00;102832.94;4998295;28;20072;-87
2021/12/17 04:01:21;;;;;;;14.67;5.07;;;;;;;3.72;100.00;102840.41;5000719;28;20487;-90
2021/12/17 04:03:49;;;;;;;16.77;5.40;;;;;;;3.77;100.00;102842.34;5001408;28;20072;-87
2021/12/17 04:06:20;;;;;;;17.27;5.57;;;;;;;3.67;100.00;102833.22;5037570;28;20041;-88
2021/12/17 04:08:47;;;;;;;12.80;5.73;;;;;;;3.72;100.00;102836.06;5014038;28;20049;-89
2021/12/17 04:11:18;;;;;;;15.17;6.13;;;;;;;3.74;100.00;102843.97;5039540;28;20037;-88
2021/12/17 04:13:52;;;;;;;25.10;7.73;;;;;;;3.85;100.00;102843.56;5002433;28;20048;-88
2021/12/17 04:16:25;;;;;;;25.08;9.00;;;;;;;3.86;100.00;102842.75;4995964;28;20038;-85
2021/12/17 04:18:52;;;;;;;16.37;5.67;;;;;;;3.91;100.00;102843.84;4985221;28;20046;-87
2021/12/17 04:21:20;;;;;;;18.77;6.03;;;;;;;3.93;100.00;102843.91;5021275;28;20041;-87
2021/12/17 04:23:49;;;;;;;15.47;6.10;;;;;;;3.83;100.00;102833.88;5013563;28;20057;-87
2021/12/17 04:26:16;;;;;;;12.80;5.77;;;;;;;3.81;100.00;102828.59;4997848;28;20567;-85
2021/12/17 04:28:47;;;;;;;15.70;5.80;;;;;;;3.84;100.00;102833.94;4996102;28;20037;-89
2021/12/17 04:31:14;;;;;;;23.00;7.73;;;;;;;3.91;100.00;102827.25;4994739;28;20041;-87
2021/12/17 04:33:42;;;;;;;21.57;7.17;;;;;;;3.92;100.00;102824.69;5008820;28;20045;-87
2021/12/17 04:36:12;;;;;;;20.70;6.50;;;;;;;3.83;100.00;102813.84;5006803;28;20490;-88
2021/12/17 04:38:41;;;;;;;14.87;5.93;;;;;;;3.81;100.00;102812.91;4992591;28;20115;-89
2021/12/17 04:41:38;;;;;;;12.17;5.60;;;;;;;3.82;100.00;102817.31;4993981;28;20111;-89
2021/12/17 04:44:08;;;;;;;15.53;6.73;;;;;;;3.85;100.00;102817.41;5011421;28;20577;-88
2021/12/17 04:57:33;;;;;;;12.13;5.33;;;;;;;3.89;100.00;102829.81;5021100;28;20376;-89
2021/12/17 05:00:23;;;;;;;17.27;7.60;;;;;;;3.89;100.00;102834.16;5000225;28;20099;-88
2021/12/17 05:02:53;;;;;;;20.63;8.67;;;;;;;3.92;100.00;102824.69;5019937;28;20045;-87
2021/12/17 05:05:28;;;;;;;11.77;6.03;;;;;;;3.90;100.00;102834.22;4994938;28;20072;-87
2021/12/17 05:08:00;;;;;;;16.33;5.77;;;;;;;3.86;100.00;102837.50;4999254;28;20053;-87
2021/12/17 05:10:47;;;;;;;19.63;6.47;;;;;;;3.98;100.00;102839.75;5018230;28;20042;-87
2021/12/17 05:19:00;;;;;;;14.40;5.80;;;;;;;4.05;100.00;102836.56;5026184;28;20029;-88
2021/12/17 05:21:27;;;;;;;15.80;5.63;;;;;;;4.06;100.00;102840.06;5006593;28;20067;-87
2021/12/17 05:23:53;;;;;;;13.40;5.67;;;;;;;4.02;100.00;102840.75;4997466;28;20438;-87
2021/12/17 05:26:21;;;;;;;20.10;8.27;;;;;;;4.05;100.00;102848.75;4998708;28;20045;-87
2021/12/17 05:28:50;;;;;;;19.93;5.93;;;;;;;4.14;100.00;102854.38;5001710;28;20094;-89
2021/12/17 05:31:21;;;;;;;12.73;5.70;;;;;;;4.07;100.00;102844.47;5007334;28;20474;-85
2021/12/17 05:33:53;;;;;;;13.83;6.03;;;;;;;4.01;100.00;102850.34;5018255;28;20069;-88
2021/12/17 05:36:23;;;;;;;16.73;6.10;;;;;;;3.94;100.00;102857.03;5012093;28;20518;-87
2021/12/17 05:38:50;;;;;;;14.13;5.90;;;;;;;3.99;100.00;102857.22;4992580;28;20041;-87
2021/12/17 05:41:17;;;;;;;11.20;5.90;;;;;;;3.97;100.00;102852.78;4993521;28;20049;-87
2021/12/17 05:43:44;;;;;;;12.93;4.80;;;;;;;3.98;100.00;102858.06;4992865;28;20071;-88
2021/12/17 05:46:12;;;;;;;14.50;5.47;;;;;;;3.98;100.00;102862.41;4995649;28;20049;-88
2021/12/17 05:48:40;;;;;;;13.97;5.80;;;;;;;4.03;100.00;102863.47;4993743;28;20679;-88
2021/12/17 05:51:08;;;;;;;12.23;5.63;;;;;;;4.13;100.00;102853.47;4994346;28;20060;-87
2021/12/17 05:53:35;;;;;;;15.77;5.13;;;;;;;4.12;100.00;102866.47;4986721;28;20103;-87
2021/12/17 05:56:03;;;;;;;12.53;5.20;;;;;;;4.04;100.00;102860.94;4995162;28;20525;-87
2021/12/17 05:58:29;;;;;;;14.57;5.30;;;;;;;4.02;100.00;102862.56;4994017;28;20049;-88
2021/12/17 06:00:56;;;;;;;12.73;5.47;;;;;;;4.03;100.00;102863.47;4994862;28;20053;-85
2021/12/17 06:03:23;;;;;;;18.93;6.20;;;;;;;4.04;100.00;102870.50;4994776;28;20072;-87
2021/12/17 06:05:51;;;;;;;16.40;6.03;;;;;;;4.23;100.00;102863.47;4998025;28;20053;-86
2021/12/17 06:08:17;;;;;;;17.27;5.37;;;;;;;4.10;100.00;102868.13;4993651;28;20076;-87
2021/12/17 06:10:44;;;;;;;16.30;6.67;;;;;;;4.04;100.00;102873.13;4994234;28;20045;-88
2021/12/17 06:13:14;;;;;;;15.30;5.10;;;;;;;4.05;100.00;102874.91;4995517;28;20068;-88
2021/12/17 06:15:58;;;;;;;15.87;5.00;;;;;;;4.21;100.00;102885.19;4999076;28;20135;-85
2021/12/17 06:18:25;;;;;;;14.30;4.93;;;;;;;4.07;100.00;102881.09;4997201;28;20052;-87
2021/12/17 06:20:52;;;;;;;11.90;4.53;;;;;;;4.17;100.00;102888.47;4996792;28;20103;-87
2021/12/17 06:23:18;;;;;;;12.17;5.27;;;;;;;4.25;100.00;102894.94;4999113;28;20521;-86
2021/12/17 06:25:45;;;;;;;16.30;6.13;;;;;;;4.27;100.00;102888.03;4997476;28;20045;-86
2021/12/17 06:28:14;;;;;;;13.27;5.23;;;;;;;4.21;100.00;102893.03;4997560;28;20045;-88
2021/12/17 06:30:42;;;;;;;15.03;4.90;;;;;;;4.18;100.00;102885.94;5012522;28;20076;-87
2021/12/17 06:33:09;;;;;;;13.47;5.40;;;;;;;4.26;100.00;102885.34;5004630;28;20049;-87
2021/12/17 06:35:36;;;;;;;12.00;5.37;;;;;;;4.23;100.00;102887.03;4998440;28;20045;-87
2021/12/17 06:38:04;;;;;;;17.23;4.70;;;;;;;4.19;100.00;102889.44;4996620;28;20050;-89
2021/12/17 06:40:32;;;;;;;14.47;4.70;;;;;;;4.13;100.00;102897.06;4992437;28;20064;-85
2021/12/17 06:42:58;;;;;;;13.07;5.10;;;;;;;4.17;100.00;102910.31;4993291;28;20053;-86
2021/12/17 06:45:43;;;;;;;18.63;5.57;;;;;;;4.09;100.00;102905.59;4994468;28;20494;-86
2021/12/17 06:48:10;;;;;;;10.73;4.20;;;;;;;4.10;100.00;102912.59;4995027;28;20053;-86
2021/12/17 07:05:57;;;;;;;10.73;4.00;;;;;;;4.16;100.00;102894.56;5011574;28;20578;-88
2021/12/17 07:20:56;;;;;;;12.73;5.20;;;;;;;4.22;100.00;102892.19;5015338;28;20052;-88
2021/12/17 07:32:19;;;;;;;18.13;4.87;;;;;;;4.19;100.00;102886.81;5013766;28;20072;-89
2021/12/17 07:39:45;;;;;;;11.33;4.90;;;;;;;4.20;100.00;102868.59;5027998;28;20029;-87
2021/12/17 07:42:11;;;;;;;18.50;4.97;;;;;;;4.22;100.00;102879.13;4997254;28;20049;-88
2021/12/17 07:44:38;;;;;;;17.73;7.37;;;;;;;4.27;100.00;102884.53;5024206;28;20540;-87
2021/12/17 07:47:06;;;;;;;13.93;5.33;;;;;;;4.23;100.00;102881.78;5004138;28;20045;-87
2021/12/17 07:49:33;;;;;;;13.97;4.20;;;;;;;4.18;100.00;102887.66;4998584;28;20065;-87
2021/12/17 07:52:00;;;;;;;12.20;5.80;;;;;;;4.23;100.00;102886.13;4997746;28;20045;-88
2021/12/17 07:54:26;;;;;;;13.63;4.93;;;;;;;4.26;100.00;102877.50;5017254;28;20487;-86
2021/12/17 07:56:53;;;;;;;13.57;6.13;;;;;;;4.25;100.00;102881.84;5000846;28;20427;-87
2021/12/17 07:59:20;;;;;;;11.70;5.30;;;;;;;4.29;100.00;102889.00;5000178;28;20053;-88
2021/12/17 08:01:49;;;;;;;12.23;4.30;;;;;;;4.23;100.00;102892.25;5001342;28;20068;-86
2021/12/17 08:04:17;;;;;;;16.40;4.80;;;;;;;4.25;100.00;102894.94;5001017;28;20042;-87
2021/12/17 08:06:44;;;;;;;15.67;5.37;;;;;;;4.32;100.00;102875.16;5002825;28;20099;-89
2021/12/17 08:09:13;;;;;;;19.67;5.73;;;;;;;4.30;100.00;102861.13;4998216;28;20038;-88
2021/12/17 08:11:45;;;;;;;9.47;4.63;;;;;;;4.31;100.00;102874.25;5017399;23;20034;-80
2021/12/17 08:14:15;;;;;;;13.80;4.43;;;;;;;4.33;100.00;102890.91;4995076;28;20069;-80
2021/12/17 08:16:51;;;;;;;13.30;4.60;;;;;;;4.36;100.00;102890.13;4999726;28;20115;-80
2021/12/17 08:32:45;;;;;;;20.50;7.40;;;;;;;4.43;100.00;102885.19;5016754;28;20091;-85
2021/12/17 08:35:12;;;;;;;81.83;38.73;;;;;;;4.47;100.00;102886.25;5015838;28;20082;-81
2021/12/17 08:37:39;;;;;;;23.47;11.33;;;;;;;4.40;100.00;102881.59;5016315;28;20083;-82
2021/12/17 08:40:08;;;;;;;20.60;11.40;;;;;;;4.37;100.00;102884.97;4998275;28;20049;-81
2021/12/17 08:42:35;;;;;;;15.33;7.13;;;;;;;4.37;100.00;102889.28;5007594;28;20091;-83
2021/12/17 08:45:09;;;;;;;13.57;4.57;;;;;;;4.37;100.00;102894.53;4998135;28;20045;-81
2021/12/17 08:47:36;;;;;;;16.65;11.63;;;;;;;4.40;100.00;102898.19;5015979;28;20095;-81
2021/12/17 08:50:06;;;;;;;25.17;22.63;;;;;;;4.48;100.00;102904.63;5019292;28;20655;-81
2021/12/17 08:52:33;;;;;;;22.50;20.17;;;;;;;4.46;100.00;102908.00;4998873;28;20037;-82
2021/12/17 08:55:00;;;;;;;17.63;9.00;;;;;;;4.51;100.00;102895.97;4996042;28;20050;-80
2021/12/17 08:57:27;;;;;;;12.40;6.63;;;;;;;4.50;100.00;102895.09;4999730;28;20045;-80
2021/12/17 08:59:57;;;;;;;32.17;27.13;;;;;;;4.65;100.00;102886.97;4993434;28;20037;-80
2021/12/17 09:02:25;;;;;;;15.20;6.07;;;;;;;4.50;100.00;102899.44;5011702;28;20483;-80
2021/12/17 09:04:52;;;;;;;20.23;5.50;;;;;;;4.55;100.00;102897.00;4997483;28;20049;-79
2021/12/17 09:07:18;;;;;;;10.17;5.47;;;;;;;4.61;100.00;102898.13;4995393;28;20041;-80
2021/12/17 09:09:47;;;;;;;13.37;4.63;;;;;;;4.62;100.00;102905.16;5010784;28;20092;-80
2021/12/17 09:12:13;;;;;;;12.20;4.57;;;;;;;4.64;100.00;102905.22;5028338;28;20037;-80
2021/12/17 09:14:40;;;;;;;10.87;4.00;;;;;;;4.53;100.00;102910.00;5009353;28;20100;-81
2021/12/17 09:17:07;;;;;;;8.90;3.93;;;;;;;4.68;100.00;102915.88;5014001;28;20088;-81
2021/12/17 09:19:33;;;;;;;9.90;4.20;;;;;;;4.68;100.00;102910.63;5021444;28;20044;-82
2021/12/17 09:22:01;;;;;;;15.97;4.07;;;;;;;4.78;100.00;102909.25;5017937;28;20041;-81
2021/12/17 09:24:28;;;;;;;10.93;4.10;;;;;;;4.70;100.00;102910.69;4999872;28;20045;-82
2021/12/17 09:26:55;;;;;;;9.23;3.37;;;;;;;4.67;100.00;102908.84;5017364;28;20049;-82
2021/12/17 09:29:21;;;;;;;10.07;4.40;;;;;;;4.67;100.00;102911.47;5017523;28;20042;-81
2021/12/17 09:31:48;;;;;;;10.60;3.77;;;;;;;4.66;100.00;102909.69;5003238;28;20052;-81
2021/12/17 09:34:15;;;;;;;9.57;3.77;;;;;;;4.75;100.00;102902.19;5012713;28;20036;-82
2021/12/17 09:36:41;;;;;;;13.30;3.33;;;;;;;4.69;100.00;102906.28;5046715;28;20041;-82
2021/12/17 09:39:08;;;;;;;11.13;3.90;;;;;;;4.73;100.00;102895.13;5004938;28;20230;-81
2021/12/17 09:41:35;;;;;;;11.63;3.57;;;;;;;4.86;100.00;102915.69;4994547;28;20066;-81
2021/12/17 09:44:02;;;;;;;16.07;4.53;;;;;;;4.93;100.00;102909.88;5021939;28;20041;-81
2021/12/17 09:46:29;;;;;;;10.90;4.77;;;;;;;4.92;100.00;102912.44;4999875;28;20506;-81
2021/12/17 09:48:57;;;;;;;15.17;4.23;;;;;;;4.85;100.00;102918.25;5029310;28;20094;-81
2021/12/17 09:51:24;;;;;;;7.50;3.57;;;;;;;4.86;100.00;102931.41;5019455;28;20343;-81
2021/12/17 09:53:51;;;;;;;12.10;3.67;;;;;;;4.94;100.00;102929.09;5012919;28;20050;-81
2021/12/17 09:56:19;;;;;;;9.57;3.23;;;;;;;4.92;100.00;102930.78;5016902;28;20132;-81
2021/12/17 09:59:03;;;;;;;11.57;4.50;;;;;;;4.85;100.00;102934.88;5033282;28;20037;-80
2021/12/17 10:01:57;;;;;;;14.93;3.80;;;;;;;5.03;100.00;102932.06;5032596;28;20113;-80
2021/12/17 10:04:33;;;;;;;9.73;3.50;;;;;;;4.92;100.00;102931.66;5035427;28;20045;-80
2021/12/17 10:11:20;;;;;;;7.30;3.10;;;;;;;5.04;100.00;102916.44;5051932;28;20045;-81
2021/12/17 10:13:52;;;;;;;8.27;3.47;;;;;;;5.06;100.00;102913.88;5037184;28;20129;-81
2021/12/17 10:16:21;;;;;;;11.80;3.53;;;;;;;5.02;100.00;102922.44;5034490;28;20236;-80
2021/12/17 10:18:50;;;;;;;8.77;3.40;;;;;;;5.02;100.00;102912.84;5026945;28;20051;-80
2021/12/17 10:21:23;;;;;;;15.53;3.87;;;;;;;5.04;100.00;102916.44;5033144;28;20068;-80
2021/12/17 10:23:58;;;;;;;10.93;3.50;;;;;;;5.00;100.00;102911.00;5022553;28;20065;-81
2021/12/17 10:26:41;;;;;;;9.10;2.90;;;;;;;5.02;100.00;102918.06;5012012;28;20046;-81
2021/12/17 10:29:11;;;;;;;8.80;3.53;;;;;;;5.04;100.00;102903.34;5031062;28;20109;-82
2021/12/17 10:31:38;;;;;;;8.77;3.10;;;;;;;5.08;100.00;102914.81;5019244;28;20077;-80
2021/12/17 10:34:05;;;;;;;6.00;3.67;;;;;;;5.22;100.00;102908.38;5026448;28;20056;-83
2021/12/17 10:36:36;;;;;;;11.57;3.83;;;;;;;5.19;100.00;102915.22;5039527;28;20037;-80
2021/12/17 10:39:24;;;;;;;10.97;3.97;;;;;;;5.24;100.00;102918.91;5029916;28;20037;-82
2021/12/17 10:41:53;;;;;;;7.37;3.20;;;;;;;5.21;100.00;102914.44;5025347;28;20462;-82
2021/12/17 10:44:23;;;;;;;8.90;4.00;;;;;;;5.12;100.00;102913.19;5030386;28;20467;-82
2021/12/17 10:47:30;;;;;;;8.63;4.50;;;;;;;5.13;100.00;102904.47;5020524;28;20494;-82
2021/12/17 10:49:57;;;;;;;8.63;3.10;;;;;;;5.18;100.00;102913.44;5025503;28;20041;-82
2021/12/17 10:52:41;;;;;;;9.97;3.10;;;;;;;5.29;100.00;102912.97;5007474;28;20106;-82
2021/12/17 10:55:14;;;;;;;8.33;3.30;;;;;;;5.29;100.00;102902.50;5025520;28;20090;-83
2021/12/17 10:57:43;;;;;;;9.23;3.53;;;;;;;5.35;100.00;102902.72;5018084;28;20096;-80
2021/12/17 11:00:11;;;;;;;7.90;2.80;;;;;;;5.18;100.00;102897.69;5007821;28;20065;-83
2021/12/17 11:02:48;;;;;;;6.60;2.70;;;;;;;5.25;100.00;102907.59;5040336;28;20104;-81
2021/12/17 11:05:17;;;;;;;8.57;2.80;;;;;;;5.19;100.00;102907.34;5008766;28;20265;-82
2021/12/17 11:07:52;;;;;;;15.27;3.63;;;;;;;5.17;100.00;102912.53;5043067;28;20144;-80
2021/12/17 11:10:26;;;;;;;7.10;2.80;;;;;;;5.19;100.00;102915.22;5007839;28;20049;-82
2021/12/17 11:12:53;;;;;;;8.43;3.20;;;;;;;5.27;100.00;102906.78;5013320;28;20042;-81
2021/12/17 11:15:25;;;;;;;17.10;3.73;;;;;;;5.29;100.00;102915.59;5012402;28;20088;-80
2021/12/17 11:18:00;;;;;;;10.13;3.40;;;;;;;5.25;100.00;102915.44;5010029;28;20072;-81
2021/12/17 11:20:52;;;;;;;10.70;3.60;;;;;;;5.33;100.00;102909.66;5001548;28;20118;-80
2021/12/17 11:23:23;;;;;;;10.07;3.47;;;;;;;5.36;100.00;102920.25;5041945;28;20041;-82
2021/12/17 11:25:53;;;;;;;11.63;4.53;;;;;;;5.36;100.00;102922.84;5008460;28;20049;-82
2021/12/17 11:28:21;;;;;;;15.03;4.13;;;;;;;5.49;100.00;102918.97;5023739;28;20044;-82
2021/12/17 11:30:49;;;;;;;9.63;3.70;;;;;;;5.47;100.00;102918.03;5028106;28;20048;-82
2021/12/17 11:33:17;;;;;;;13.27;4.13;;;;;;;5.36;100.00;102925.47;5041866;28;20387;-80
2021/12/17 11:35:47;;;;;;;10.80;4.07;;;;;;;5.26;100.00;102931.22;5025276;28;20077;-81
2021/12/17 11:38:19;;;;;;;7.00;3.10;;;;;;;5.35;100.00;102934.19;5017178;28;20049;-80
2021/12/17 11:41:07;;;;;;;9.63;3.80;;;;;;;5.35;100.00;102934.19;5028579;28;20049;-79
2021/12/17 11:43:51;;;;;;;7.50;3.47;;;;;;;5.30;100.00;102935.75;5014526;28;20064;-82
2021/12/17 11:46:26;;;;;;;6.60;3.20;;;;;;;5.35;100.00;102931.56;5026573;28;20194;-81
2021/12/17 11:49:00;;;;;;;10.40;3.43;;;;;;;5.38;100.00;102917.66;5029542;28;20049;-80
2021/12/17 11:51:30;;;;;;;8.90;3.90;;;;;;;5.40;100.00;102912.50;5042391;28;20075;-81
2021/12/17 11:54:09;;;;;;;8.10;3.13;;;;;;;5.41;100.00;102909.03;5029557;28;20478;-82
2021/12/17 11:56:36;;;;;;;12.33;4.00;;;;;;;5.40;100.00;102918.63;5033876;28;20045;-81
2021/12/17 11:59:30;;;;;;;11.37;3.63;;;;;;;5.35;100.00;102913.22;5052303;28;20528;-82
2021/12/17 12:02:14;;;;;;;8.43;3.73;;;;;;;5.45;100.00;102919.69;5038155;28;20036;-82
2021/12/17 12:05:01;;;;;;;9.57;3.38;;;;;;;5.54;100.00;102904.28;5020176;28;20096;-81
2021/12/17 12:07:28;;;;;;;10.43;3.87;;;;;;;5.47;100.00;102907.53;5007084;28;20048;-81
2021/12/17 12:10:19;;;;;;;10.43;4.23;;;;;;;5.45;100.00;102911.81;5030834;28;20132;-82
2021/12/17 12:12:50;;;;;;;8.20;3.23;;;;;;;5.46;100.00;102907.47;5038128;28;20061;-82
2021/12/17 12:15:22;;;;;;;8.30;3.33;;;;;;;5.58;100.00;102911.44;5025790;28;20056;-82
2021/12/17 12:18:02;;;;;;;8.73;3.20;;;;;;;5.61;100.00;102929.00;5028577;28;20072;-79
2021/12/17 12:20:52;;;;;;;11.87;4.07;;;;;;;5.42;100.00;102919.59;5039755;28;20255;-82
2021/12/17 12:23:25;;;;;;;8.97;3.60;;;;;;;5.41;100.00;102911.66;5013990;28;20103;-80
2021/12/17 12:26:14;;;;;;;11.43;4.00;;;;;;;5.44;100.00;102917.00;5029646;28;20049;-81
2021/12/17 12:28:44;;;;;;;12.77;3.77;;;;;;;5.52;100.00;102911.22;5011752;28;20269;-81
2021/12/17 12:31:19;;;;;;;10.33;4.00;;;;;;;5.57;100.00;102907.03;5039904;28;20044;-81
2021/12/17 12:34:05;;;;;;;13.83;4.03;;;;;;;5.52;100.00;102903.34;5042098;28;20113;-80
2021/12/17 12:36:52;;;;;;;9.77;3.60;;;;;;;5.59;100.00;102907.09;5027159;28;20107;-82
2021/12/17 12:39:33;;;;;;;8.87;3.30;;;;;;;5.65;100.00;102899.44;5025746;28;20517;-82
2021/12/17 12:42:17;;;;;;;8.23;3.57;;;;;;;5.61;100.00;102897.53;5016261;28;20105;-80
2021/12/17 12:44:44;;;;;;;9.20;4.50;;;;;;;5.64;100.00;102902.91;5037285;28;20831;-81
2021/12/17 12:47:20;;;;;;;6.07;3.47;;;;;;;5.53;100.00;102897.25;5020050;28;20083;-83
2021/12/17 12:50:12;;;;;;;9.23;4.33;;;;;;;5.54;100.00;102893.78;5014678;28;20049;-83
2021/12/17 12:53:09;;;;;;;8.23;4.30;;;;;;;5.56;100.00;102906.97;5014062;28;20045;-82
2021/12/17 12:55:45;;;;;;;17.67;4.00;;;;;;;5.67;100.00;102902.13;5020349;28;20063;-82
2021/12/17 12:58:18;;;;;;;10.03;4.63;;;;;;;5.68;100.00;102903.91;5016991;28;20140;-83
2021/12/17 13:00:48;;;;;;;11.67;4.30;;;;;;;5.64;100.00;102916.03;5021808;28;20033;-83
2021/12/17 13:03:18;;;;;;;10.30;4.33;;;;;;;5.66;100.00;102919.59;4996657;28;20130;-83
2021/12/17 13:05:47;;;;;;;8.23;4.03;;;;;;;5.58;100.00;102907.94;5016936;28;20083;-82
2021/12/17 13:08:16;;;;;;;8.60;4.13;;;;;;;5.59;100.00;102912.31;5001808;28;20080;-82
2021/12/17 13:10:55;;;;;;;10.17;4.40;;;;;;;5.57;100.00;102912.28;5023826;28;20119;-83
2021/12/17 13:21:31;;;;;;;10.13;4.60;;;;;;;5.60;100.00;102904.50;5019344;28;20398;-83
2021/12/17 13:26:55;;;;;;;10.47;3.70;;;;;;;5.58;100.00;102911.44;5021759;28;20076;-84
2021/12/17 13:29:32;;;;;;;10.20;3.80;;;;;;;5.52;100.00;102913.84;5009236;28;20548;-83
2021/12/17 13:32:01;;;;;;;7.63;3.77;;;;;;;5.51;100.00;102904.19;5004861;28;20044;-83
2021/12/17 13:34:46;;;;;;;10.50;5.03;;;;;;;5.49;100.00;102899.72;5001381;28;20041;-83
2021/12/17 13:37:18;;;;;;;12.75;4.53;;;;;;;5.40;100.00;102913.41;5024686;28;20048;-84
2021/12/17 13:40:05;;;;;;;11.80;4.13;;;;;;;5.52;100.00;102920.81;5017891;28;20050;-83
2021/12/17 13:42:42;;;;;;;6.77;4.23;;;;;;;5.44;100.00;102927.50;5014774;28;20045;-83
2021/12/17 13:45:13;;;;;;;7.17;3.80;;;;;;;5.41;100.00;102916.91;4992783;28;20045;-83
2021/12/17 13:47:48;;;;;;;10.67;4.00;;;;;;;5.38;100.00;102928.16;4999451;28;20057;-83
2021/12/17 13:50:28;;;;;;;10.40;3.63;;;;;;;5.39;100.00;102918.59;5004324;28;20116;-82
2021/12/17 13:53:13;;;;;;;7.13;3.97;;;;;;;5.40;100.00;102923.00;5001301;28;20069;-83
2021/12/17 13:55:59;;;;;;;7.30;4.20;;;;;;;5.32;100.00;102935.81;5009607;28;20064;-83
2021/12/17 13:58:28;;;;;;;13.30;4.23;;;;;;;5.29;100.00;102936.56;5003889;28;20045;-84
2021/12/17 14:00:57;;;;;;;7.53;4.03;;;;;;;5.36;100.00;102935.97;5008976;28;20041;-83
2021/12/17 14:03:32;;;;;;;9.70;4.43;;;;;;;5.45;100.00;102943.28;5020794;28;20128;-83
2021/12/17 14:06:16;;;;;;;9.77;4.60;;;;;;;5.45;100.00;102943.28;5005850;28;20045;-83
2021/12/17 14:08:43;;;;;;;12.10;4.32;;;;;;;5.53;100.00;102939.22;4992678;28;20542;-83
2021/12/17 14:11:21;;;;;;;11.67;4.43;;;;;;;5.43;100.00;102949.31;5011054;28;20515;-82
2021/12/17 14:14:40;;;;;;;7.87;3.93;;;;;;;5.26;100.00;102952.19;5017775;28;20517;-83
2021/12/17 14:17:10;;;;;;;5.50;3.33;;;;;;;5.22;100.00;102966.03;4994318;28;20096;-83
2021/12/17 14:19:47;;;;;;;13.10;4.50;;;;;;;5.25;100.00;102958.28;5002146;28;20076;-83
2021/12/17 14:22:26;;;;;;;7.77;4.07;;;;;;;5.16;100.00;102952.69;5001018;28;20038;-83
2021/12/17 14:24:57;;;;;;;9.00;3.77;;;;;;;5.17;100.00;102956.19;5014306;28;20041;-83
2021/12/17 14:27:46;;;;;;;11.07;4.53;;;;;;;5.15;100.00;102966.63;5019691;28;20045;-83
2021/12/17 14:30:13;;;;;;;10.10;3.97;;;;;;;5.18;100.00;102966.72;4998244;28;20061;-84
2021/12/17 14:32:45;;;;;;;8.43;3.30;;;;;;;5.28;100.00;102953.13;5015455;28;20041;-83
2021/12/17 14:35:12;;;;;;;11.80;3.73;;;;;;;5.21;100.00;102953.75;5024978;28;20049;-83
2021/12/17 14:37:56;;;;;;;9.37;3.87;;;;;;;5.18;100.00;102957.97;5019186;28;20076;-84
2021/12/17 14:40:25;;;;;;;8.67;3.20;;;;;;;5.13;100.00;102956.88;5004811;28;20474;-83
2021/12/17 14:42:55;;;;;;;9.00;4.17;;;;;;;5.23;100.00;102964.28;4997671;28;20483;-82
2021/12/17 14:45:31;;;;;;;11.50;4.40;;;;;;;5.19;100.00;102962.38;5002995;28;20135;-83
2021/12/17 14:48:21;;;;;;;7.63;3.33;;;;;;;5.13;100.00;102962.13;5002163;28;20046;-83
2021/12/17 15:02:58;;;;;;;10.90;3.70;;;;;;;5.12;100.00;102971.72;5016636;28;20124;-83
2021/12/17 15:04:55;;;;;;;10.43;4.33;;;;;;;5.09;100.00;102969.88;5012615;28;20084;-83
2021/12/17 15:07:23;;;;;;;5.70;3.40;;;;;;;5.20;100.00;102964.16;5001023;28;20054;-83
2021/12/17 15:09:50;;;;;;;8.53;3.70;;;;;;;5.19;100.00;102957.13;5008466;28;20046;-82
2021/12/17 15:15:30;;;;;;;6.63;3.23;;;;;;;5.04;100.00;102944.31;5008123;28;20037;-82
2021/12/17 15:17:59;;;;;;;5.87;3.10;;;;;;;5.00;100.00;102940.72;5021044;28;20037;-83
2021/12/17 15:20:32;;;;;;;7.60;2.80;;;;;;;5.00;100.00;102959.03;4995762;28;20644;-82
2021/12/17 15:23:03;;;;;;;6.15;2.75;;;;;;;4.99;100.00;102965.13;4998667;28;20379;-82
2021/12/17 15:25:30;;;;;;;7.30;3.00;;;;;;;5.08;100.00;102959.34;4993308;28;20068;-81
2021/12/17 15:27:57;;;;;;;6.37;2.80;;;;;;;5.00;100.00;102950.31;4995868;28;20052;-84